createdAt,value
2024-01-05T00:01:11.827Z,94.95
2024-01-05T00:04:17.081Z,94.55
2024-01-05T00:07:20.232Z,92.92
2024-01-05T00:10:23.597Z,92.68
2024-01-05T00:13:26.657Z,92.75
2024-01-05T00:16:30.182Z,92.38
2024-01-05T00:19:33.498Z,92.28
2024-01-05T00:22:36.840Z,91.48
2024-01-05T00:25:39.914Z,90.90
2024-01-05T00:28:43.425Z,90.49
2024-01-05T00:31:46.698Z,90.48
2024-01-05T00:34:50.173Z,90.54
2024-01-05T00:37:53.480Z,91.03
2024-01-05T00:40:57.942Z,91.95
2024-01-05T00:44:00.639Z,92.12
2024-01-05T00:47:03.909Z,92.09
2024-01-05T00:50:08.300Z,91.96
2024-01-05T00:53:11.782Z,91.85
2024-01-05T00:56:14.566Z,91.67
2024-01-05T00:59:20.727Z,90.66
2024-01-05T01:02:23.631Z,90.08
2024-01-05T01:05:27.111Z,89.78
2024-01-05T01:08:30.148Z,89.56
2024-01-05T01:11:33.217Z,89.04
2024-01-05T01:14:36.149Z,88.53
2024-01-05T01:17:39.412Z,87.73
2024-01-05T01:20:42.382Z,87.44
2024-01-05T01:23:45.621Z,86.59
2024-01-05T01:26:48.415Z,85.83
2024-01-05T01:29:51.896Z,85.62
2024-01-05T01:32:54.854Z,85.12
2024-01-05T01:35:58.352Z,84.75
2024-01-05T01:39:01.625Z,84.41
2024-01-05T01:42:05.890Z,84.02
2024-01-05T01:45:09.060Z,84.26
2024-01-05T01:48:12.499Z,84.04
2024-01-05T01:51:15.708Z,84.11
2024-01-05T01:54:19.296Z,84.47
2024-01-05T01:57:22.536Z,85.04
2024-01-05T02:00:26.232Z,85.55
2024-01-05T02:03:30.222Z,85.87
2024-01-05T02:06:34.606Z,85.80
2024-01-05T02:09:37.945Z,86.45
2024-01-05T02:12:40.895Z,86.14
2024-01-05T02:15:44.420Z,88.24
2024-01-05T02:18:54.040Z,90.36
2024-01-05T02:22:00.526Z,89.61
2024-01-05T02:25:03.474Z,90.17
2024-01-05T02:28:06.729Z,92.70
2024-01-05T02:31:09.791Z,91.70
2024-01-05T02:34:13.226Z,91.22
2024-01-05T02:37:16.334Z,92.21
2024-01-05T02:40:19.522Z,92.45
2024-01-05T02:43:23.015Z,93.56
2024-01-05T02:46:26.433Z,95.94
2024-01-05T02:49:29.369Z,94.63
2024-01-05T02:52:32.811Z,95.35
2024-01-05T02:55:35.832Z,96.89
2024-01-05T02:58:40.435Z,94.78
2024-01-05T03:01:43.307Z,95.19
2024-01-05T03:04:47.424Z,95.01
2024-01-05T03:07:50.681Z,95.88
2024-01-05T03:10:54.024Z,94.74
2024-01-05T03:13:57.328Z,95.72
2024-01-05T03:17:00.511Z,96.73
2024-01-05T03:20:03.773Z,96.64
2024-01-05T03:23:06.971Z,98.40
2024-01-05T03:26:11.152Z,96.47
2024-01-05T03:29:14.316Z,96.36
2024-01-05T03:32:17.485Z,98.47
2024-01-05T03:35:21.145Z,98.90
2024-01-05T03:38:24.342Z,99.00
2024-01-05T03:41:27.602Z,96.81
2024-01-05T03:44:30.995Z,96.19
2024-01-05T03:47:34.085Z,96.67
2024-01-05T03:50:36.819Z,97.93
2024-01-05T03:53:40.153Z,98.23
2024-01-05T03:56:44.578Z,97.66
2024-01-05T03:59:48.866Z,96.87
2024-01-05T04:02:51.791Z,97.76
2024-01-05T04:05:55.167Z,97.96
2024-01-05T04:08:58.336Z,97.70
2024-01-05T04:12:01.951Z,97.90
2024-01-05T04:15:05.988Z,99.64
2024-01-05T04:18:09.619Z,100.00
2024-01-05T04:21:12.666Z,100.00
2024-01-05T04:24:16.091Z,98.94
2024-01-05T04:27:19.117Z,100.00
2024-01-05T04:30:22.586Z,100.00
2024-01-05T04:33:25.856Z,100.00
2024-01-05T04:36:29.231Z,100.00
2024-01-05T04:39:32.172Z,100.00
2024-01-05T04:42:35.468Z,100.00
2024-01-05T04:45:38.406Z,100.00
2024-01-05T04:48:41.785Z,100.00
2024-01-05T04:51:45.084Z,99.34
2024-01-05T04:54:48.524Z,98.80
2024-01-05T04:57:51.463Z,98.46
2024-01-05T05:00:55.674Z,98.81
2024-01-05T05:03:58.650Z,98.69
2024-01-05T05:07:01.868Z,98.60
2024-01-05T05:10:05.200Z,99.06
2024-01-05T05:13:08.417Z,99.33
2024-01-05T05:16:11.477Z,99.57
2024-01-05T05:19:15.200Z,99.98
2024-01-05T05:22:18.455Z,99.99
2024-01-05T05:25:21.657Z,99.78
2024-01-05T05:28:24.945Z,100.00
2024-01-05T05:31:28.300Z,100.00
2024-01-05T05:34:31.407Z,100.00
2024-01-05T05:37:35.058Z,100.00
2024-01-05T05:40:38.452Z,100.00
2024-01-05T05:43:41.549Z,100.00
2024-01-05T05:46:44.501Z,99.73
2024-01-05T05:49:47.998Z,99.73
2024-01-05T05:52:52.888Z,99.80
2024-01-05T05:55:56.373Z,99.31
2024-01-05T05:58:59.331Z,99.00
2024-01-05T06:02:02.502Z,98.89
2024-01-05T06:05:09.461Z,98.61
2024-01-05T06:08:12.438Z,98.38
2024-01-05T06:11:20.061Z,98.21
2024-01-05T06:14:23.126Z,97.97
2024-01-05T06:17:26.614Z,97.88
2024-01-05T06:20:29.524Z,97.34
2024-01-05T06:23:33.654Z,96.94
2024-01-05T06:26:36.625Z,96.79
2024-01-05T06:29:40.240Z,96.37
2024-01-05T06:32:43.203Z,96.42
2024-01-05T06:35:46.844Z,95.67
2024-01-05T06:38:49.805Z,95.20
2024-01-05T06:41:53.190Z,95.56
2024-01-05T06:44:56.327Z,95.59
2024-01-05T06:48:00.329Z,95.34
2024-01-05T06:51:03.775Z,95.92
2024-01-05T06:54:07.637Z,96.07
2024-01-05T06:57:10.635Z,97.58
2024-01-05T07:00:14.955Z,97.40
2024-01-05T07:03:18.394Z,97.55
2024-01-05T07:06:22.215Z,97.56
2024-01-05T07:09:25.208Z,97.64
2024-01-05T07:12:31.594Z,98.37
2024-01-05T07:15:34.800Z,97.91
2024-01-05T07:18:39.394Z,98.15
2024-01-05T07:21:42.756Z,97.75
2024-01-05T07:24:46.229Z,98.37
2024-01-05T07:27:49.070Z,98.47
2024-01-05T07:30:55.720Z,96.37
2024-01-05T07:33:58.743Z,95.20
2024-01-05T07:37:01.953Z,95.09
2024-01-05T07:40:05.427Z,93.20
2024-01-05T07:43:10.604Z,93.19
2024-01-05T07:46:13.925Z,93.69
2024-01-05T07:49:17.751Z,93.19
2024-01-05T07:52:20.754Z,93.80
2024-01-05T07:55:24.721Z,93.58
2024-01-05T07:58:27.887Z,93.83
2024-01-05T08:01:31.334Z,93.40
2024-01-05T08:04:36.924Z,93.33
2024-01-05T08:07:40.040Z,92.75
2024-01-05T08:10:43.782Z,92.82
2024-01-05T08:13:47.894Z,91.46
2024-01-05T08:16:51.376Z,90.61
2024-01-05T08:19:57.552Z,89.59
2024-01-05T08:23:00.914Z,87.82
2024-01-05T08:26:08.007Z,85.06
2024-01-05T08:29:11.554Z,86.62
2024-01-05T08:32:14.425Z,79.65
2024-01-05T08:35:17.710Z,82.39
2024-01-05T08:38:20.580Z,80.97
2024-01-05T08:41:24.772Z,79.92
2024-01-05T08:44:29.877Z,76.03
2024-01-05T08:47:33.236Z,76.22
2024-01-05T08:50:36.650Z,76.55
2024-01-05T08:53:40.127Z,78.25
2024-01-05T08:56:43.219Z,77.87
2024-01-05T08:59:46.467Z,77.16
2024-01-05T09:02:49.312Z,73.85
2024-01-05T09:05:53.768Z,68.98
2024-01-05T09:09:00.923Z,65.33
2024-01-05T09:12:04.826Z,63.36
2024-01-05T09:15:10.298Z,64.48
2024-01-05T09:18:13.783Z,65.88
2024-01-05T09:21:20.309Z,64.00
2024-01-05T09:24:23.470Z,61.19
2024-01-05T09:27:26.627Z,57.55
2024-01-05T09:30:30.882Z,55.01
2024-01-05T09:33:34.200Z,53.23
2024-01-05T09:36:42.760Z,53.00
2024-01-05T09:39:46.606Z,52.88
2024-01-05T09:42:52.075Z,51.84
2024-01-05T09:45:59.171Z,50.30
2024-01-05T09:49:05.447Z,50.13
2024-01-05T09:52:09.131Z,48.00
2024-01-05T09:55:12.973Z,49.26
2024-01-05T09:58:19.530Z,48.90
2024-01-05T10:01:27.953Z,50.06
2024-01-05T10:04:32.531Z,50.66
2024-01-05T10:07:43.241Z,47.50
2024-01-05T10:11:00.643Z,47.12
2024-01-05T10:14:08.628Z,48.16
2024-01-05T10:17:13.034Z,48.61
2024-01-05T10:20:18.642Z,50.69
2024-01-05T10:23:24.826Z,49.29
2024-01-05T10:26:27.888Z,49.99
2024-01-05T10:29:34.129Z,50.73
2024-01-05T10:32:37.806Z,49.03
2024-01-05T10:35:41.734Z,49.20
2024-01-05T10:38:45.591Z,47.64
2024-01-05T10:41:48.884Z,46.32
2024-01-05T10:44:54.791Z,46.11
2024-01-05T10:47:59.528Z,47.33
2024-01-05T10:51:04.164Z,46.45
2024-01-05T10:54:08.752Z,45.51
2024-01-05T10:57:14.015Z,45.73
2024-01-05T11:00:18.410Z,46.86
2024-01-05T11:03:22.068Z,46.08
2024-01-05T11:06:26.293Z,44.44
2024-01-05T11:09:41.183Z,43.91
2024-01-05T11:13:01.135Z,43.63
2024-01-05T11:16:31.822Z,44.63
2024-01-05T11:20:13.921Z,45.54
2024-01-05T11:23:18.723Z,46.09
2024-01-05T11:26:43.765Z,44.53
2024-01-05T11:29:46.887Z,46.52
2024-01-05T11:32:51.262Z,48.25
2024-01-05T11:35:55.053Z,46.61
2024-01-05T11:38:58.494Z,46.59
2024-01-05T11:42:01.828Z,45.92
2024-01-05T11:45:11.419Z,46.22
2024-01-05T11:48:40.748Z,46.09
2024-01-05T11:51:44.155Z,46.64
2024-01-05T11:55:12.421Z,48.60
2024-01-05T11:58:23.544Z,49.70
2024-01-05T12:01:29.392Z,50.61
2024-01-05T12:04:47.322Z,51.82
2024-01-05T12:07:56.563Z,53.76
2024-01-05T12:11:05.112Z,55.31
2024-01-05T12:14:08.227Z,56.18
2024-01-05T12:17:15.541Z,56.27
2024-01-05T12:20:19.518Z,56.98
2024-01-05T12:23:23.071Z,57.65
2024-01-05T12:26:26.811Z,58.35
2024-01-05T12:29:30.932Z,58.89
2024-01-05T12:32:37.294Z,59.49
2024-01-05T12:35:44.858Z,60.52
2024-01-05T12:38:47.958Z,60.50
2024-01-05T12:41:54.082Z,61.10
2024-01-05T12:44:56.804Z,60.88
2024-01-05T12:48:11.097Z,61.49
2024-01-05T12:51:25.607Z,61.79
2024-01-05T12:54:28.944Z,62.11
2024-01-05T12:57:35.307Z,63.42
2024-01-05T13:00:45.180Z,63.14
2024-01-05T13:03:55.982Z,64.38
2024-01-05T13:06:59.614Z,65.33
2024-01-05T13:10:05.120Z,64.18
2024-01-05T13:13:08.411Z,64.53
2024-01-05T13:16:11.400Z,65.73
2024-01-05T13:19:18.130Z,65.45
2024-01-05T13:22:21.056Z,66.06
2024-01-05T13:25:25.039Z,66.35
2024-01-05T13:28:29.112Z,66.49
2024-01-05T13:31:32.417Z,66.64
2024-01-05T13:34:36.943Z,67.79
2024-01-05T13:37:40.862Z,67.84
2024-01-05T13:40:43.827Z,67.89
2024-01-05T13:43:48.449Z,68.32
2024-01-05T13:46:52.067Z,68.40
2024-01-05T13:49:58.272Z,67.79
2024-01-05T13:53:05.324Z,68.38
2024-01-05T13:56:08.930Z,69.38
2024-01-05T13:59:11.916Z,69.30
2024-01-05T14:02:15.023Z,69.72
2024-01-05T14:05:21.609Z,69.45
2024-01-05T14:08:24.531Z,70.20
2024-01-05T14:11:28.056Z,70.10
2024-01-05T14:14:30.987Z,70.45
2024-01-05T14:17:34.653Z,70.37
2024-01-05T14:20:38.060Z,70.79
2024-01-05T14:23:41.593Z,70.90
2024-01-05T14:26:49.348Z,71.01
2024-01-05T14:29:54.618Z,71.73
2024-01-05T14:32:59.222Z,71.65
2024-01-05T14:36:06.140Z,71.96
2024-01-05T14:39:11.488Z,72.34
2024-01-05T14:42:14.655Z,72.46
2024-01-05T14:45:17.653Z,73.55
2024-01-05T14:48:23.063Z,73.19
2024-01-05T14:51:26.497Z,73.52
2024-01-05T14:54:30.415Z,74.14
2024-01-05T14:57:33.989Z,74.23
2024-01-05T15:00:37.478Z,74.58
2024-01-05T15:03:41.371Z,74.87
2024-01-05T15:06:44.806Z,75.24
2024-01-05T15:09:48.306Z,74.92
2024-01-05T15:12:54.238Z,75.43
2024-01-05T15:16:00.082Z,76.05
2024-01-05T15:19:07.388Z,76.00
2024-01-05T15:22:10.894Z,76.72
2024-01-05T15:25:16.627Z,76.47
2024-01-05T15:28:20.491Z,76.67
2024-01-05T15:31:23.919Z,76.03
2024-01-05T15:34:27.323Z,76.10
2024-01-05T15:37:32.968Z,76.37
2024-01-05T15:40:38.637Z,76.37
2024-01-05T15:43:42.744Z,76.73
2024-01-05T15:46:45.569Z,76.38
2024-01-05T15:49:49.021Z,76.20
2024-01-05T15:52:52.198Z,76.06
2024-01-05T15:55:58.998Z,75.71
2024-01-05T15:59:03.714Z,75.70
2024-01-05T16:02:08.934Z,75.67
2024-01-05T16:05:12.366Z,75.33
2024-01-05T16:08:15.461Z,74.87
2024-01-05T16:11:18.650Z,75.28
2024-01-05T16:14:21.924Z,75.26
2024-01-05T16:17:25.138Z,75.50
2024-01-05T16:20:28.364Z,75.33
2024-01-05T16:23:32.124Z,75.08
2024-01-05T16:26:35.291Z,75.14
2024-01-05T16:29:38.640Z,75.26
2024-01-05T16:32:43.642Z,75.09
2024-01-05T16:35:46.983Z,74.96
2024-01-05T16:38:50.467Z,74.74
2024-01-05T16:41:54.070Z,74.61
2024-01-05T16:44:56.909Z,74.64
2024-01-05T16:48:00.013Z,74.73
2024-01-05T16:51:03.059Z,74.73
2024-01-05T16:54:07.124Z,75.18
2024-01-05T16:57:10.385Z,75.33
2024-01-05T17:00:14.285Z,75.47
2024-01-05T17:03:17.718Z,75.48
2024-01-05T17:06:22.164Z,76.05
2024-01-05T17:09:25.273Z,76.08
2024-01-05T17:12:28.674Z,76.11
2024-01-05T17:15:32.418Z,75.90
2024-01-05T17:18:38.213Z,75.41
2024-01-05T17:21:42.454Z,74.61
2024-01-05T17:24:46.695Z,73.92
2024-01-05T17:27:49.632Z,73.60
2024-01-05T17:30:52.842Z,73.63
2024-01-05T17:33:57.326Z,73.72
2024-01-05T17:37:00.977Z,74.04
2024-01-05T17:40:04.933Z,73.93
2024-01-05T17:43:10.758Z,73.91
2024-01-05T17:46:13.916Z,73.58
2024-01-05T17:49:17.817Z,73.55
2024-01-05T17:52:22.073Z,73.71
2024-01-05T17:55:26.145Z,73.26
2024-01-05T17:58:29.415Z,73.44
2024-01-05T18:01:33.965Z,73.48
2024-01-05T18:04:37.575Z,72.62
2024-01-05T18:07:42.543Z,72.64
2024-01-05T18:10:46.064Z,72.82
2024-01-05T18:13:48.923Z,72.41
2024-01-05T18:16:53.237Z,72.47
2024-01-05T18:19:56.974Z,72.70
2024-01-05T18:23:00.477Z,72.66
2024-01-05T18:26:04.795Z,72.55
2024-01-05T18:29:17.137Z,71.72
2024-01-05T18:32:28.092Z,71.89
2024-01-05T18:35:32.092Z,71.84
2024-01-05T18:38:35.239Z,71.40
2024-01-05T18:41:39.881Z,71.01
2024-01-05T18:44:43.261Z,70.62
2024-01-05T18:47:46.416Z,70.66
2024-01-05T18:50:49.645Z,70.30
2024-01-05T18:53:53.046Z,70.65
2024-01-05T18:56:56.157Z,70.63
2024-01-05T18:59:59.573Z,70.48
2024-01-05T19:03:03.137Z,70.24
2024-01-05T19:06:06.869Z,70.30
2024-01-05T19:09:12.709Z,69.83
2024-01-05T19:12:17.414Z,69.29
2024-01-05T19:15:20.501Z,68.56
2024-01-05T19:18:24.012Z,68.29
2024-01-05T19:21:27.654Z,68.38
2024-01-05T19:24:30.984Z,68.34
2024-01-05T19:27:33.962Z,67.90
2024-01-05T19:30:37.439Z,67.77
2024-01-05T19:33:40.455Z,67.17
2024-01-05T19:36:47.704Z,66.51
2024-01-05T19:39:50.844Z,66.36
2024-01-05T19:42:54.449Z,66.05
2024-01-05T19:45:58.054Z,65.77
2024-01-05T19:49:01.790Z,65.05
2024-01-05T19:52:06.747Z,64.94
2024-01-05T19:55:10.018Z,64.08
2024-01-05T19:58:13.701Z,64.33
2024-01-05T20:01:18.432Z,64.42
2024-01-05T20:04:25.628Z,64.72
2024-01-05T20:07:29.370Z,64.58
2024-01-05T20:10:32.642Z,64.69
2024-01-05T20:13:35.410Z,65.02
2024-01-05T20:16:39.418Z,64.85
2024-01-05T20:19:43.320Z,65.18
2024-01-05T20:22:46.839Z,65.39
2024-01-05T20:25:50.105Z,65.02
2024-01-05T20:28:53.992Z,64.80
2024-01-05T20:31:57.605Z,64.67
2024-01-05T20:35:00.791Z,65.02
2024-01-05T20:38:04.515Z,65.25
2024-01-05T20:41:10.927Z,65.07
2024-01-05T20:44:16.130Z,65.10
2024-01-05T20:47:20.799Z,64.14
2024-01-05T20:50:23.922Z,63.61
2024-01-05T20:53:27.189Z,63.96
2024-01-05T20:56:30.256Z,64.71
2024-01-05T20:59:33.906Z,65.32
2024-01-05T21:02:36.817Z,65.70
2024-01-05T21:05:40.820Z,66.12
2024-01-05T21:08:44.382Z,66.39
2024-01-05T21:11:48.025Z,66.66
2024-01-05T21:14:50.805Z,66.91
2024-01-05T21:17:54.218Z,66.85
2024-01-05T21:20:58.912Z,66.41
2024-01-05T21:24:04.254Z,65.96
2024-01-05T21:27:07.387Z,66.33
2024-01-05T21:33:32.397Z,65.35
2024-01-05T21:36:36.241Z,65.14
2024-01-05T21:39:39.624Z,64.72
2024-01-05T21:42:43.403Z,64.36
2024-01-05T21:45:46.873Z,64.14
2024-01-05T21:48:50.243Z,63.54
2024-01-05T21:51:55.196Z,62.54
2024-01-05T21:54:58.948Z,62.68
2024-01-05T21:58:02.322Z,62.08
2024-01-05T22:01:06.863Z,61.42
2024-01-05T22:04:11.125Z,61.39
2024-01-05T22:07:14.182Z,60.84
2024-01-05T22:10:17.911Z,59.97
2024-01-05T22:13:21.582Z,59.71
2024-01-05T22:16:25.001Z,59.31
2024-01-05T22:19:28.429Z,59.57
2024-01-05T22:22:31.822Z,59.41
2024-01-05T22:25:36.477Z,59.85
2024-01-05T22:28:39.687Z,59.66
2024-01-05T22:31:44.667Z,59.14
2024-01-05T22:34:48.591Z,59.92
2024-01-05T22:37:51.710Z,60.07
2024-01-05T22:40:56.461Z,59.94
2024-01-05T22:43:59.668Z,59.60
2024-01-05T22:47:06.163Z,59.66
2024-01-05T22:50:09.953Z,59.96
2024-01-05T22:53:13.875Z,60.22
2024-01-05T22:56:19.657Z,60.57
2024-01-05T22:59:22.850Z,60.41
2024-01-05T23:02:27.570Z,60.43
2024-01-05T23:05:30.929Z,60.54
2024-01-05T23:08:33.642Z,60.56
2024-01-05T23:11:36.988Z,61.19
2024-01-05T23:14:39.839Z,61.11
2024-01-05T23:17:43.236Z,61.17
2024-01-05T23:20:46.410Z,61.13
2024-01-05T23:23:50.053Z,61.63
2024-01-05T23:26:53.095Z,62.38
2024-01-05T23:29:56.230Z,61.82
2024-01-05T23:32:59.674Z,61.69
2024-01-05T23:36:03.821Z,61.66
2024-01-05T23:39:06.800Z,61.72
2024-01-05T23:42:10.641Z,61.93
2024-01-05T23:45:15.132Z,62.00
2024-01-05T23:48:19.064Z,61.59
2024-01-05T23:51:21.951Z,61.61
2024-01-05T23:54:25.257Z,61.75
2024-01-05T23:57:28.882Z,61.63
